In Rescue
 
Open Full Screen Window  High Contrast Mode
Wind Gusting 00 knots
03
September 19, 2019 5:37 PM EDT
Weather Information
Wind Direction
  100 °
Wind Speed
  03 kt (3 mph)
Wind Gust
  00 kt (0 mph)
Altimeter
30.10 in
Visibility
10 SM
Temperature
26° C
79° F
Dewpoint
13° C
55° F
Humidity
45%
1hr Rain Fall
00.00 in.
24hr Rain Fall
00.00 in.
Sky Condition
Clear
VFR

METAR KFPK 192137Z AUTO 10003KT 10SM CLR 26/13 A3010 RMK AO2 T02610125

FAA Disclaimer: The data displayed is for advisory purposes only and is not to be used for flight planning or operations.